sensor_id;sensor_type;location;lat;lon;timestamp;P1;durP1;ratioP1;P2;durP2;ratioP2
13799;SDS011;6971;50.028;9.258;2024-01-30T00:00:55;4.87;;;3.47;;
13799;SDS011;6971;50.028;9.258;2024-01-30T00:05:57;10.80;;;3.73;;
13799;SDS011;6971;50.028;9.258;2024-01-30T00:10:57;4.90;;;3.83;;
13799;SDS011;6971;50.028;9.258;2024-01-30T00:15:57;4.17;;;3.40;;
13799;SDS011;6971;50.028;9.258;2024-01-30T00:20:58;4.07;;;3.07;;
13799;SDS011;6971;50.028;9.258;2024-01-30T00:25:58;5.17;;;3.53;;
13799;SDS011;6971;50.028;9.258;2024-01-30T00:30:58;4.27;;;2.77;;
13799;SDS011;6971;50.028;9.258;2024-01-30T00:35:59;5.33;;;3.20;;
13799;SDS011;6971;50.028;9.258;2024-01-30T00:40:59;3.27;;;2.73;;
13799;SDS011;6971;50.028;9.258;2024-01-30T00:46:00;5.63;;;3.00;;
13799;SDS011;6971;50.028;9.258;2024-01-30T00:51:00;3.10;;;2.13;;
13799;SDS011;6971;50.028;9.258;2024-01-30T00:56:00;6.33;;;3.10;;
13799;SDS011;6971;50.028;9.258;2024-01-30T01:01:01;3.23;;;2.93;;
13799;SDS011;6971;50.028;9.258;2024-01-30T01:06:01;3.17;;;2.70;;
13799;SDS011;6971;50.028;9.258;2024-01-30T01:11:02;3.93;;;3.37;;
13799;SDS011;6971;50.028;9.258;2024-01-30T01:16:03;4.53;;;3.47;;
13799;SDS011;6971;50.028;9.258;2024-01-30T01:21:04;2.77;;;2.40;;
13799;SDS011;6971;50.028;9.258;2024-01-30T01:26:04;5.00;;;2.50;;
13799;SDS011;6971;50.028;9.258;2024-01-30T01:31:05;3.70;;;2.40;;
13799;SDS011;6971;50.028;9.258;2024-01-30T01:36:06;3.53;;;2.73;;
13799;SDS011;6971;50.028;9.258;2024-01-30T01:41:06;3.43;;;2.53;;
13799;SDS011;6971;50.028;9.258;2024-01-30T01:46:07;3.50;;;2.20;;
13799;SDS011;6971;50.028;9.258;2024-01-30T01:51:08;5.53;;;2.80;;
13799;SDS011;6971;50.028;9.258;2024-01-30T01:56:09;2.27;;;1.97;;
13799;SDS011;6971;50.028;9.258;2024-01-30T02:01:10;5.50;;;3.00;;
13799;SDS011;6971;50.028;9.258;2024-01-30T02:06:13;4.03;;;2.80;;
13799;SDS011;6971;50.028;9.258;2024-01-30T02:11:14;4.17;;;2.70;;
13799;SDS011;6971;50.028;9.258;2024-01-30T02:16:16;2.83;;;2.63;;
13799;SDS011;6971;50.028;9.258;2024-01-30T02:21:19;5.00;;;2.53;;
13799;SDS011;6971;50.028;9.258;2024-01-30T02:26:20;3.83;;;2.63;;
13799;SDS011;6971;50.028;9.258;2024-01-30T02:31:20;5.17;;;2.50;;
13799;SDS011;6971;50.028;9.258;2024-01-30T02:36:21;4.10;;;2.53;;
13799;SDS011;6971;50.028;9.258;2024-01-30T02:41:21;4.60;;;2.80;;
13799;SDS011;6971;50.028;9.258;2024-01-30T02:46:21;3.80;;;2.70;;
13799;SDS011;6971;50.028;9.258;2024-01-30T02:51:22;3.63;;;2.17;;
13799;SDS011;6971;50.028;9.258;2024-01-30T02:56:22;3.73;;;2.40;;
13799;SDS011;6971;50.028;9.258;2024-01-30T03:01:22;4.93;;;2.60;;
13799;SDS011;6971;50.028;9.258;2024-01-30T03:06:24;3.93;;;2.80;;
13799;SDS011;6971;50.028;9.258;2024-01-30T03:11:24;4.37;;;2.40;;
13799;SDS011;6971;50.028;9.258;2024-01-30T03:16:25;2.47;;;1.93;;
13799;SDS011;6971;50.028;9.258;2024-01-30T03:21:25;2.80;;;2.23;;
13799;SDS011;6971;50.028;9.258;2024-01-30T03:26:26;6.57;;;2.90;;
13799;SDS011;6971;50.028;9.258;2024-01-30T03:31:26;2.77;;;2.43;;
13799;SDS011;6971;50.028;9.258;2024-01-30T03:36:26;4.43;;;2.37;;
13799;SDS011;6971;50.028;9.258;2024-01-30T03:41:27;3.97;;;2.30;;
13799;SDS011;6971;50.028;9.258;2024-01-30T03:46:27;2.63;;;2.40;;
13799;SDS011;6971;50.028;9.258;2024-01-30T03:51:28;5.37;;;2.80;;
13799;SDS011;6971;50.028;9.258;2024-01-30T03:56:28;2.20;;;2.00;;
13799;SDS011;6971;50.028;9.258;2024-01-30T04:01:28;2.80;;;2.33;;
13799;SDS011;6971;50.028;9.258;2024-01-30T04:06:29;4.07;;;2.37;;
13799;SDS011;6971;50.028;9.258;2024-01-30T04:11:29;7.77;;;2.83;;
13799;SDS011;6971;50.028;9.258;2024-01-30T04:16:29;4.10;;;2.63;;
13799;SDS011;6971;50.028;9.258;2024-01-30T04:21:30;3.47;;;3.03;;
13799;SDS011;6971;50.028;9.258;2024-01-30T04:26:30;3.77;;;3.10;;
13799;SDS011;6971;50.028;9.258;2024-01-30T04:31:30;2.23;;;2.03;;
13799;SDS011;6971;50.028;9.258;2024-01-30T04:36:31;4.10;;;2.93;;
13799;SDS011;6971;50.028;9.258;2024-01-30T04:41:31;4.23;;;2.30;;
13799;SDS011;6971;50.028;9.258;2024-01-30T04:46:32;3.87;;;2.90;;
13799;SDS011;6971;50.028;9.258;2024-01-30T04:51:34;6.23;;;3.20;;
13799;SDS011;6971;50.028;9.258;2024-01-30T04:56:34;5.93;;;3.53;;
13799;SDS011;6971;50.028;9.258;2024-01-30T05:01:35;3.97;;;2.67;;
13799;SDS011;6971;50.028;9.258;2024-01-30T05:06:36;4.83;;;2.90;;
13799;SDS011;6971;50.028;9.258;2024-01-30T05:11:37;2.87;;;2.60;;
13799;SDS011;6971;50.028;9.258;2024-01-30T05:16:41;4.10;;;3.47;;
13799;SDS011;6971;50.028;9.258;2024-01-30T05:21:42;5.87;;;3.50;;
13799;SDS011;6971;50.028;9.258;2024-01-30T05:26:43;5.50;;;3.80;;
13799;SDS011;6971;50.028;9.258;2024-01-30T05:31:43;4.77;;;3.23;;
13799;SDS011;6971;50.028;9.258;2024-01-30T05:36:43;6.70;;;3.83;;
13799;SDS011;6971;50.028;9.258;2024-01-30T05:41:44;6.77;;;3.87;;
13799;SDS011;6971;50.028;9.258;2024-01-30T05:46:44;4.23;;;3.10;;
13799;SDS011;6971;50.028;9.258;2024-01-30T05:51:45;4.73;;;3.40;;
13799;SDS011;6971;50.028;9.258;2024-01-30T05:56:45;5.63;;;3.73;;
13799;SDS011;6971;50.028;9.258;2024-01-30T06:01:46;5.87;;;3.00;;
13799;SDS011;6971;50.028;9.258;2024-01-30T06:06:47;5.37;;;3.40;;
13799;SDS011;6971;50.028;9.258;2024-01-30T06:11:48;12.60;;;5.43;;
13799;SDS011;6971;50.028;9.258;2024-01-30T06:16:48;3.33;;;2.83;;
13799;SDS011;6971;50.028;9.258;2024-01-30T06:21:48;8.40;;;4.30;;
13799;SDS011;6971;50.028;9.258;2024-01-30T06:26:49;5.23;;;3.97;;
13799;SDS011;6971;50.028;9.258;2024-01-30T06:31:49;6.43;;;4.53;;
13799;SDS011;6971;50.028;9.258;2024-01-30T06:36:49;10.93;;;3.37;;
13799;SDS011;6971;50.028;9.258;2024-01-30T06:41:50;5.40;;;3.33;;
13799;SDS011;6971;50.028;9.258;2024-01-30T06:46:50;6.00;;;4.20;;
13799;SDS011;6971;50.028;9.258;2024-01-30T06:51:50;6.40;;;3.97;;
13799;SDS011;6971;50.028;9.258;2024-01-30T06:56:51;3.77;;;3.23;;
13799;SDS011;6971;50.028;9.258;2024-01-30T07:01:51;5.70;;;3.40;;
13799;SDS011;6971;50.028;9.258;2024-01-30T07:06:52;7.57;;;4.27;;
13799;SDS011;6971;50.028;9.258;2024-01-30T07:11:53;7.90;;;5.07;;
13799;SDS011;6971;50.028;9.258;2024-01-30T07:16:55;8.30;;;4.87;;
13799;SDS011;6971;50.028;9.258;2024-01-30T07:21:55;6.17;;;4.57;;
13799;SDS011;6971;50.028;9.258;2024-01-30T07:26:56;4.90;;;3.67;;
13799;SDS011;6971;50.028;9.258;2024-01-30T07:31:57;5.50;;;4.23;;
13799;SDS011;6971;50.028;9.258;2024-01-30T07:36:57;7.00;;;3.57;;
13799;SDS011;6971;50.028;9.258;2024-01-30T07:41:58;10.07;;;3.93;;
13799;SDS011;6971;50.028;9.258;2024-01-30T07:46:58;5.10;;;3.90;;
13799;SDS011;6971;50.028;9.258;2024-01-30T07:51:59;3.87;;;3.10;;
13799;SDS011;6971;50.028;9.258;2024-01-30T07:57:00;7.07;;;3.37;;
13799;SDS011;6971;50.028;9.258;2024-01-30T08:02:01;4.43;;;3.57;;
13799;SDS011;6971;50.028;9.258;2024-01-30T08:07:01;4.63;;;3.27;;
13799;SDS011;6971;50.028;9.258;2024-01-30T08:12:01;5.63;;;3.70;;
13799;SDS011;6971;50.028;9.258;2024-01-30T08:17:02;10.43;;;4.87;;
13799;SDS011;6971;50.028;9.258;2024-01-30T08:22:03;6.83;;;3.93;;
13799;SDS011;6971;50.028;9.258;2024-01-30T08:27:03;8.60;;;5.67;;
13799;SDS011;6971;50.028;9.258;2024-01-30T08:32:05;11.63;;;4.73;;
13799;SDS011;6971;50.028;9.258;2024-01-30T08:37:06;5.90;;;3.50;;
13799;SDS011;6971;50.028;9.258;2024-01-30T08:42:06;6.57;;;3.60;;
13799;SDS011;6971;50.028;9.258;2024-01-30T08:47:08;11.67;;;4.57;;
13799;SDS011;6971;50.028;9.258;2024-01-30T08:52:08;5.97;;;3.87;;
13799;SDS011;6971;50.028;9.258;2024-01-30T08:57:08;6.57;;;4.27;;
13799;SDS011;6971;50.028;9.258;2024-01-30T09:02:09;7.10;;;5.53;;
13799;SDS011;6971;50.028;9.258;2024-01-30T09:07:10;8.83;;;5.57;;
13799;SDS011;6971;50.028;9.258;2024-01-30T09:12:10;13.73;;;6.17;;
13799;SDS011;6971;50.028;9.258;2024-01-30T09:17:11;19.33;;;9.17;;
13799;SDS011;6971;50.028;9.258;2024-01-30T09:22:12;12.70;;;8.63;;
13799;SDS011;6971;50.028;9.258;2024-01-30T09:27:12;14.17;;;8.30;;
13799;SDS011;6971;50.028;9.258;2024-01-30T09:32:13;17.33;;;9.57;;
13799;SDS011;6971;50.028;9.258;2024-01-30T09:37:17;21.03;;;12.47;;
13799;SDS011;6971;50.028;9.258;2024-01-30T09:42:25;20.63;;;10.07;;
13799;SDS011;6971;50.028;9.258;2024-01-30T09:47:41;18.57;;;10.30;;
13799;SDS011;6971;50.028;9.258;2024-01-30T09:52:43;10.60;;;6.53;;
13799;SDS011;6971;50.028;9.258;2024-01-30T09:57:44;8.63;;;5.40;;
13799;SDS011;6971;50.028;9.258;2024-01-30T10:02:44;8.60;;;6.20;;
13799;SDS011;6971;50.028;9.258;2024-01-30T10:07:55;10.37;;;7.17;;
13799;SDS011;6971;50.028;9.258;2024-01-30T10:12:56;17.33;;;10.03;;
13799;SDS011;6971;50.028;9.258;2024-01-30T10:17:57;18.03;;;11.37;;
13799;SDS011;6971;50.028;9.258;2024-01-30T10:22:57;19.37;;;11.43;;
13799;SDS011;6971;50.028;9.258;2024-01-30T10:27:58;15.73;;;11.10;;
13799;SDS011;6971;50.028;9.258;2024-01-30T10:32:59;15.63;;;9.93;;
13799;SDS011;6971;50.028;9.258;2024-01-30T10:37:59;15.53;;;10.87;;
13799;SDS011;6971;50.028;9.258;2024-01-30T10:43:00;15.20;;;11.63;;
13799;SDS011;6971;50.028;9.258;2024-01-30T10:48:02;16.40;;;11.00;;
13799;SDS011;6971;50.028;9.258;2024-01-30T10:53:05;16.33;;;10.90;;
13799;SDS011;6971;50.028;9.258;2024-01-30T10:58:07;15.70;;;10.30;;
13799;SDS011;6971;50.028;9.258;2024-01-30T11:03:08;21.10;;;12.83;;
13799;SDS011;6971;50.028;9.258;2024-01-30T11:08:15;23.20;;;12.67;;
13799;SDS011;6971;50.028;9.258;2024-01-30T11:13:30;25.37;;;14.17;;
13799;SDS011;6971;50.028;9.258;2024-01-30T11:18:31;23.57;;;14.10;;
13799;SDS011;6971;50.028;9.258;2024-01-30T11:23:35;20.13;;;14.07;;
13799;SDS011;6971;50.028;9.258;2024-01-30T11:28:36;24.03;;;15.00;;
13799;SDS011;6971;50.028;9.258;2024-01-30T11:33:37;24.43;;;16.50;;
13799;SDS011;6971;50.028;9.258;2024-01-30T11:38:38;32.37;;;18.80;;
13799;SDS011;6971;50.028;9.258;2024-01-30T11:43:39;33.43;;;18.40;;
13799;SDS011;6971;50.028;9.258;2024-01-30T11:48:39;30.70;;;17.87;;
13799;SDS011;6971;50.028;9.258;2024-01-30T11:53:39;13.90;;;9.97;;
13799;SDS011;6971;50.028;9.258;2024-01-30T11:58:44;12.60;;;8.37;;
13799;SDS011;6971;50.028;9.258;2024-01-30T12:03:49;9.60;;;5.50;;
13799;SDS011;6971;50.028;9.258;2024-01-30T12:08:56;5.50;;;3.90;;
13799;SDS011;6971;50.028;9.258;2024-01-30T12:13:58;4.33;;;3.13;;
13799;SDS011;6971;50.028;9.258;2024-01-30T12:19:01;6.27;;;4.10;;
13799;SDS011;6971;50.028;9.258;2024-01-30T12:24:02;4.33;;;3.90;;
13799;SDS011;6971;50.028;9.258;2024-01-30T12:29:03;7.07;;;3.97;;
13799;SDS011;6971;50.028;9.258;2024-01-30T12:34:04;6.37;;;4.10;;
13799;SDS011;6971;50.028;9.258;2024-01-30T12:39:04;5.97;;;4.13;;
13799;SDS011;6971;50.028;9.258;2024-01-30T12:44:05;7.27;;;4.53;;
13799;SDS011;6971;50.028;9.258;2024-01-30T12:49:07;7.70;;;5.63;;
13799;SDS011;6971;50.028;9.258;2024-01-30T12:54:07;7.80;;;4.90;;
13799;SDS011;6971;50.028;9.258;2024-01-30T12:59:08;5.10;;;4.07;;
13799;SDS011;6971;50.028;9.258;2024-01-30T13:04:08;5.63;;;3.87;;
13799;SDS011;6971;50.028;9.258;2024-01-30T13:09:08;4.77;;;3.17;;
13799;SDS011;6971;50.028;9.258;2024-01-30T13:14:09;3.73;;;3.07;;
13799;SDS011;6971;50.028;9.258;2024-01-30T13:19:09;5.30;;;3.53;;
13799;SDS011;6971;50.028;9.258;2024-01-30T13:24:10;5.83;;;3.63;;
13799;SDS011;6971;50.028;9.258;2024-01-30T13:29:10;5.30;;;3.87;;
13799;SDS011;6971;50.028;9.258;2024-01-30T13:34:10;4.87;;;4.30;;
13799;SDS011;6971;50.028;9.258;2024-01-30T13:39:11;5.80;;;3.93;;
13799;SDS011;6971;50.028;9.258;2024-01-30T13:44:12;8.87;;;5.93;;
13799;SDS011;6971;50.028;9.258;2024-01-30T13:49:13;10.23;;;5.47;;
13799;SDS011;6971;50.028;9.258;2024-01-30T13:54:13;18.83;;;9.60;;
13799;SDS011;6971;50.028;9.258;2024-01-30T13:59:15;8.03;;;5.40;;
13799;SDS011;6971;50.028;9.258;2024-01-30T14:04:15;8.13;;;4.47;;
13799;SDS011;6971;50.028;9.258;2024-01-30T14:09:16;5.57;;;4.00;;
13799;SDS011;6971;50.028;9.258;2024-01-30T14:14:16;6.47;;;4.97;;
13799;SDS011;6971;50.028;9.258;2024-01-30T14:19:16;6.87;;;4.57;;
13799;SDS011;6971;50.028;9.258;2024-01-30T14:24:17;8.20;;;4.70;;
13799;SDS011;6971;50.028;9.258;2024-01-30T14:29:17;8.37;;;4.53;;
13799;SDS011;6971;50.028;9.258;2024-01-30T14:34:18;5.43;;;4.20;;
13799;SDS011;6971;50.028;9.258;2024-01-30T14:39:19;5.43;;;4.27;;
13799;SDS011;6971;50.028;9.258;2024-01-30T14:44:19;5.70;;;3.77;;
13799;SDS011;6971;50.028;9.258;2024-01-30T14:49:19;10.43;;;4.60;;
13799;SDS011;6971;50.028;9.258;2024-01-30T14:54:20;5.30;;;3.70;;
13799;SDS011;6971;50.028;9.258;2024-01-30T14:59:21;4.97;;;3.67;;
13799;SDS011;6971;50.028;9.258;2024-01-30T15:04:21;5.53;;;3.73;;
13799;SDS011;6971;50.028;9.258;2024-01-30T15:09:22;5.30;;;4.03;;
13799;SDS011;6971;50.028;9.258;2024-01-30T15:14:23;4.63;;;3.53;;
13799;SDS011;6971;50.028;9.258;2024-01-30T15:19:23;7.77;;;4.10;;
13799;SDS011;6971;50.028;9.258;2024-01-30T15:24:24;5.03;;;3.80;;
13799;SDS011;6971;50.028;9.258;2024-01-30T15:29:24;5.83;;;3.67;;
13799;SDS011;6971;50.028;9.258;2024-01-30T15:34:24;7.17;;;4.47;;
13799;SDS011;6971;50.028;9.258;2024-01-30T15:39:25;5.40;;;3.60;;
13799;SDS011;6971;50.028;9.258;2024-01-30T15:44:25;4.83;;;3.57;;
13799;SDS011;6971;50.028;9.258;2024-01-30T15:49:25;7.20;;;3.40;;
13799;SDS011;6971;50.028;9.258;2024-01-30T15:54:26;5.70;;;3.80;;
13799;SDS011;6971;50.028;9.258;2024-01-30T15:59:26;5.70;;;4.23;;
13799;SDS011;6971;50.028;9.258;2024-01-30T16:04:27;5.07;;;3.33;;
13799;SDS011;6971;50.028;9.258;2024-01-30T16:09:27;4.53;;;3.17;;
13799;SDS011;6971;50.028;9.258;2024-01-30T16:14:27;8.17;;;3.77;;
13799;SDS011;6971;50.028;9.258;2024-01-30T16:19:28;4.93;;;3.80;;
13799;SDS011;6971;50.028;9.258;2024-01-30T16:24:29;6.63;;;3.60;;
13799;SDS011;6971;50.028;9.258;2024-01-30T16:29:29;6.77;;;3.47;;
13799;SDS011;6971;50.028;9.258;2024-01-30T16:34:29;9.70;;;3.53;;
13799;SDS011;6971;50.028;9.258;2024-01-30T16:39:30;6.47;;;3.50;;
13799;SDS011;6971;50.028;9.258;2024-01-30T16:44:30;6.77;;;4.70;;
13799;SDS011;6971;50.028;9.258;2024-01-30T16:49:30;5.40;;;3.40;;
13799;SDS011;6971;50.028;9.258;2024-01-30T16:54:31;3.63;;;3.00;;
13799;SDS011;6971;50.028;9.258;2024-01-30T16:59:31;5.73;;;3.50;;
13799;SDS011;6971;50.028;9.258;2024-01-30T17:04:32;5.67;;;3.30;;
13799;SDS011;6971;50.028;9.258;2024-01-30T17:09:33;4.67;;;3.37;;
13799;SDS011;6971;50.028;9.258;2024-01-30T17:14:33;7.53;;;4.67;;
13799;SDS011;6971;50.028;9.258;2024-01-30T17:19:38;7.73;;;4.80;;
13799;SDS011;6971;50.028;9.258;2024-01-30T17:24:38;7.83;;;3.43;;
13799;SDS011;6971;50.028;9.258;2024-01-30T17:29:38;7.73;;;3.47;;
13799;SDS011;6971;50.028;9.258;2024-01-30T17:34:39;7.07;;;3.10;;
13799;SDS011;6971;50.028;9.258;2024-01-30T17:39:39;5.90;;;3.53;;
13799;SDS011;6971;50.028;9.258;2024-01-30T17:44:40;9.83;;;3.30;;
13799;SDS011;6971;50.028;9.258;2024-01-30T17:49:40;5.10;;;3.13;;
13799;SDS011;6971;50.028;9.258;2024-01-30T17:54:40;4.20;;;2.67;;
13799;SDS011;6971;50.028;9.258;2024-01-30T17:59:41;5.10;;;3.40;;
13799;SDS011;6971;50.028;9.258;2024-01-30T18:04:42;5.67;;;3.93;;
13799;SDS011;6971;50.028;9.258;2024-01-30T18:09:42;6.60;;;3.90;;
13799;SDS011;6971;50.028;9.258;2024-01-30T18:14:42;7.83;;;4.20;;
13799;SDS011;6971;50.028;9.258;2024-01-30T18:19:44;8.60;;;5.13;;
13799;SDS011;6971;50.028;9.258;2024-01-30T18:24:44;9.63;;;3.93;;
13799;SDS011;6971;50.028;9.258;2024-01-30T18:29:45;6.37;;;4.50;;
13799;SDS011;6971;50.028;9.258;2024-01-30T18:34:45;8.10;;;4.77;;
13799;SDS011;6971;50.028;9.258;2024-01-30T18:39:45;7.30;;;4.90;;
13799;SDS011;6971;50.028;9.258;2024-01-30T18:44:46;6.03;;;4.80;;
13799;SDS011;6971;50.028;9.258;2024-01-30T18:49:46;8.50;;;4.90;;
13799;SDS011;6971;50.028;9.258;2024-01-30T18:54:50;7.93;;;4.20;;
13799;SDS011;6971;50.028;9.258;2024-01-30T18:59:52;8.73;;;5.37;;
13799;SDS011;6971;50.028;9.258;2024-01-30T19:04:52;10.23;;;6.17;;
13799;SDS011;6971;50.028;9.258;2024-01-30T19:09:52;11.80;;;5.50;;
13799;SDS011;6971;50.028;9.258;2024-01-30T19:14:53;8.63;;;5.90;;
13799;SDS011;6971;50.028;9.258;2024-01-30T19:19:53;8.10;;;4.97;;
13799;SDS011;6971;50.028;9.258;2024-01-30T19:24:54;7.40;;;5.20;;
13799;SDS011;6971;50.028;9.258;2024-01-30T19:29:54;7.70;;;4.80;;
13799;SDS011;6971;50.028;9.258;2024-01-30T19:34:55;11.13;;;5.50;;
13799;SDS011;6971;50.028;9.258;2024-01-30T19:39:55;7.57;;;5.07;;
13799;SDS011;6971;50.028;9.258;2024-01-30T19:44:56;7.70;;;5.17;;
13799;SDS011;6971;50.028;9.258;2024-01-30T19:49:56;7.00;;;4.23;;
13799;SDS011;6971;50.028;9.258;2024-01-30T19:54:56;10.80;;;5.90;;
13799;SDS011;6971;50.028;9.258;2024-01-30T19:59:57;6.90;;;4.60;;
13799;SDS011;6971;50.028;9.258;2024-01-30T20:04:57;8.23;;;5.43;;
13799;SDS011;6971;50.028;9.258;2024-01-30T20:09:59;10.80;;;5.90;;
13799;SDS011;6971;50.028;9.258;2024-01-30T20:14:59;8.27;;;5.20;;
13799;SDS011;6971;50.028;9.258;2024-01-30T20:19:59;5.83;;;4.17;;
13799;SDS011;6971;50.028;9.258;2024-01-30T20:25:00;11.43;;;5.10;;
13799;SDS011;6971;50.028;9.258;2024-01-30T20:30:00;9.33;;;5.07;;
13799;SDS011;6971;50.028;9.258;2024-01-30T20:35:01;5.87;;;4.33;;
13799;SDS011;6971;50.028;9.258;2024-01-30T20:40:02;8.87;;;4.83;;
13799;SDS011;6971;50.028;9.258;2024-01-30T20:45:03;11.60;;;6.63;;
13799;SDS011;6971;50.028;9.258;2024-01-30T20:50:04;8.67;;;6.60;;
13799;SDS011;6971;50.028;9.258;2024-01-30T20:55:05;8.80;;;5.10;;
13799;SDS011;6971;50.028;9.258;2024-01-30T21:00:06;6.23;;;4.90;;
13799;SDS011;6971;50.028;9.258;2024-01-30T21:05:06;7.90;;;5.10;;
13799;SDS011;6971;50.028;9.258;2024-01-30T21:10:07;6.47;;;4.87;;
13799;SDS011;6971;50.028;9.258;2024-01-30T21:15:08;8.93;;;4.93;;
13799;SDS011;6971;50.028;9.258;2024-01-30T21:20:10;8.40;;;4.70;;
13799;SDS011;6971;50.028;9.258;2024-01-30T21:25:11;8.27;;;5.20;;
13799;SDS011;6971;50.028;9.258;2024-01-30T21:30:11;7.20;;;4.80;;
13799;SDS011;6971;50.028;9.258;2024-01-30T21:35:12;9.27;;;5.43;;
13799;SDS011;6971;50.028;9.258;2024-01-30T21:40:12;6.87;;;5.33;;
13799;SDS011;6971;50.028;9.258;2024-01-30T21:45:15;7.90;;;6.07;;
13799;SDS011;6971;50.028;9.258;2024-01-30T21:50:18;9.77;;;5.87;;
13799;SDS011;6971;50.028;9.258;2024-01-30T21:55:19;10.13;;;6.57;;
13799;SDS011;6971;50.028;9.258;2024-01-30T22:00:20;15.57;;;7.40;;
13799;SDS011;6971;50.028;9.258;2024-01-30T22:05:20;12.27;;;6.10;;
13799;SDS011;6971;50.028;9.258;2024-01-30T22:10:20;11.97;;;7.13;;
13799;SDS011;6971;50.028;9.258;2024-01-30T22:15:21;11.57;;;6.67;;
13799;SDS011;6971;50.028;9.258;2024-01-30T22:20:21;9.97;;;6.13;;
13799;SDS011;6971;50.028;9.258;2024-01-30T22:25:22;13.07;;;7.43;;
13799;SDS011;6971;50.028;9.258;2024-01-30T22:30:22;13.73;;;8.33;;
13799;SDS011;6971;50.028;9.258;2024-01-30T22:35:23;11.63;;;8.03;;
13799;SDS011;6971;50.028;9.258;2024-01-30T22:40:23;13.63;;;6.97;;
13799;SDS011;6971;50.028;9.258;2024-01-30T22:45:23;11.43;;;7.70;;
13799;SDS011;6971;50.028;9.258;2024-01-30T22:50:24;11.30;;;7.53;;
13799;SDS011;6971;50.028;9.258;2024-01-30T22:55:24;12.60;;;7.47;;
13799;SDS011;6971;50.028;9.258;2024-01-30T23:00:26;12.30;;;7.20;;
13799;SDS011;6971;50.028;9.258;2024-01-30T23:05:28;10.43;;;6.43;;
13799;SDS011;6971;50.028;9.258;2024-01-30T23:10:30;9.80;;;7.10;;
13799;SDS011;6971;50.028;9.258;2024-01-30T23:15:30;7.93;;;6.20;;
13799;SDS011;6971;50.028;9.258;2024-01-30T23:20:30;10.53;;;6.47;;
13799;SDS011;6971;50.028;9.258;2024-01-30T23:25:31;10.13;;;6.60;;
13799;SDS011;6971;50.028;9.258;2024-01-30T23:30:31;7.97;;;6.53;;
13799;SDS011;6971;50.028;9.258;2024-01-30T23:35:31;10.13;;;7.23;;
13799;SDS011;6971;50.028;9.258;2024-01-30T23:40:32;10.17;;;6.20;;
13799;SDS011;6971;50.028;9.258;2024-01-30T23:45:32;10.03;;;5.77;;
13799;SDS011;6971;50.028;9.258;2024-01-30T23:50:32;15.00;;;6.83;;
13799;SDS011;6971;50.028;9.258;2024-01-30T23:55:33;10.50;;;7.07;;
